Time;durP1;ratioP1;P1;durP2;ratioP2;P2;SDS_P1;SDS_P2;PMS_P1;PMS_P2;Temp;Humidity;BMP_temperature;BMP_pressure;BME280_temperature;BME280_humidity;BME280_pressure;Samples;Min_cycle;Max_cycle;Signal;HPM_P1;HPM_P2
2023/12/09 00:00:37;;;;;;;9.38;5.30;;;;;;;-13.56;84.44;102596.53;10442322;28;20044;-66
2023/12/09 00:05:39;;;;;;;11.05;6.80;;;;;;;-13.58;84.47;102608.97;10443661;28;20045;-64
2023/12/09 00:10:43;;;;;;;8.65;5.65;;;;;;;-13.62;84.51;102602.13;10443274;28;20033;-65
2023/12/09 00:15:45;;;;;;;10.00;5.40;;;;;;;-13.46;84.38;102616.28;10444553;28;20421;-65
2023/12/09 00:20:48;;;;;;;8.90;5.63;;;;;;;-13.44;84.30;102606.47;10458090;28;20029;-65
2023/12/09 00:25:51;;;;;;;10.77;7.22;;;;;;;-13.51;84.68;102607.75;10444671;28;20037;-64
2023/12/09 00:30:54;;;;;;;12.48;7.90;;;;;;;-13.54;84.27;102599.94;10443521;28;20037;-65
2023/12/09 00:35:56;;;;;;;10.95;7.25;;;;;;;-13.65;84.50;102581.19;10442879;28;20052;-65
2023/12/09 00:41:00;;;;;;;10.35;6.28;;;;;;;-13.60;85.54;102565.94;10442320;28;20045;-64
2023/12/09 00:46:03;;;;;;;8.65;5.57;;;;;;;-13.53;85.04;102573.50;10440155;28;20060;-64
2023/12/09 00:51:05;;;;;;;9.02;5.72;;;;;;;-13.46;84.90;102566.09;10439908;28;20048;-64
2023/12/09 00:56:09;;;;;;;8.93;5.05;;;;;;;-13.45;84.86;102566.03;10441720;28;20041;-66
2023/12/09 01:01:13;;;;;;;10.35;5.88;;;;;;;-13.49;84.36;102576.84;10439943;28;20049;-65
2023/12/09 01:06:16;;;;;;;8.40;5.25;;;;;;;-13.43;85.45;102587.06;10449419;28;20037;-65
2023/12/09 01:11:19;;;;;;;10.35;5.68;;;;;;;-13.42;85.78;102567.66;10427709;28;20045;-65
2023/12/09 01:16:21;;;;;;;10.38;5.35;;;;;;;-13.38;85.33;102577.13;10440935;28;20049;-64
2023/12/09 01:21:23;;;;;;;10.30;5.43;;;;;;;-13.37;84.66;102567.41;10442596;28;20132;-65
2023/12/09 01:26:27;;;;;;;9.50;5.18;;;;;;;-13.37;84.90;102564.75;10440915;28;20041;-64
2023/12/09 01:31:32;;;;;;;9.50;5.28;;;;;;;-13.36;85.18;102569.09;10440073;28;20045;-64
2023/12/09 01:36:35;;;;;;;8.85;5.22;;;;;;;-13.32;84.68;102554.84;10441767;28;20046;-65
2023/12/09 01:41:37;;;;;;;9.52;5.43;;;;;;;-13.36;85.85;102550.63;10442299;28;20049;-65
2023/12/09 01:46:40;;;;;;;10.18;6.05;;;;;;;-13.39;84.95;102546.38;10415558;28;20050;-64
2023/12/09 01:51:44;;;;;;;8.82;4.85;;;;;;;-13.31;85.73;102527.50;10406135;28;20044;-65
2023/12/09 01:56:47;;;;;;;9.80;5.65;;;;;;;-13.30;85.21;102526.56;10420852;28;20045;-64
2023/12/09 02:01:51;;;;;;;7.25;4.97;;;;;;;-13.36;85.79;102524.22;10437563;28;20427;-64
2023/12/09 02:06:54;;;;;;;8.82;6.00;;;;;;;-13.38;85.89;102536.66;10437874;28;20049;-64
2023/12/09 02:12:23;;;;;;;8.73;5.50;;;;;;;-13.30;85.73;102513.34;10447322;28;20603;-64
2023/12/09 02:17:33;;;;;;;8.57;5.00;;;;;;;-13.30;85.61;102524.78;10446426;28;20048;-65
2023/12/09 02:22:36;;;;;;;8.00;4.88;;;;;;;-13.27;85.28;102513.19;10439985;28;20532;-64
2023/12/09 02:27:44;;;;;;;9.38;5.75;;;;;;;-13.36;84.62;102518.94;10439088;28;20041;-65
2023/12/09 02:32:48;;;;;;;8.97;5.37;;;;;;;-13.33;85.65;102511.72;10439104;28;20057;-64
2023/12/09 02:37:53;;;;;;;9.38;5.28;;;;;;;-13.31;85.86;102499.31;10440438;28;20062;-64
2023/12/09 02:42:56;;;;;;;8.48;5.22;;;;;;;-13.33;85.92;102517.00;10437247;28;20258;-65
2023/12/09 02:47:58;;;;;;;8.95;5.50;;;;;;;-13.34;85.83;102507.38;10440602;28;20044;-65
2023/12/09 02:53:00;;;;;;;8.85;5.00;;;;;;;-13.24;86.09;102511.22;10442069;28;20052;-64
2023/12/09 02:58:04;;;;;;;10.80;5.82;;;;;;;-13.27;85.70;102514.03;10447423;28;20827;-66
2023/12/09 03:03:06;;;;;;;10.32;5.40;;;;;;;-13.18;86.06;102512.72;10448221;28;20045;-65
2023/12/09 03:08:08;;;;;;;9.25;5.53;;;;;;;-13.16;85.90;102495.81;10446581;28;20048;-64
2023/12/09 03:13:11;;;;;;;9.63;4.78;;;;;;;-13.17;85.06;102496.75;10446726;28;20053;-65
2023/12/09 03:18:14;;;;;;;8.68;5.43;;;;;;;-13.19;85.85;102498.66;10445684;28;20033;-65
2023/12/09 03:23:17;;;;;;;9.65;5.18;;;;;;;-13.20;85.92;102502.19;10441930;28;20045;-65
2023/12/09 03:28:19;;;;;;;9.88;5.40;;;;;;;-13.19;85.94;102496.00;10444438;28;20045;-65
2023/12/09 03:33:21;;;;;;;9.35;5.03;;;;;;;-13.19;86.25;102503.06;10458721;28;20048;-65
2023/12/09 03:38:24;;;;;;;8.35;5.22;;;;;;;-13.17;85.58;102504.66;10440194;28;20040;-65
2023/12/09 03:43:26;;;;;;;7.38;4.85;;;;;;;-13.10;85.55;102505.19;10444915;28;20049;-65
2023/12/09 03:48:31;;;;;;;10.95;6.03;;;;;;;-13.14;86.14;102501.00;10447830;28;20053;-65
2023/12/09 03:53:33;;;;;;;9.73;5.13;;;;;;;-13.14;85.68;102498.38;10445559;28;20803;-65
2023/12/09 03:58:36;;;;;;;9.05;4.97;;;;;;;-13.14;85.78;102493.09;10439169;28;20037;-66
2023/12/09 04:03:39;;;;;;;9.48;5.10;;;;;;;-13.05;86.27;102499.63;10441737;28;20048;-66
2023/12/09 04:08:41;;;;;;;7.70;4.78;;;;;;;-13.05;85.33;102502.28;10441750;28;20037;-66
2023/12/09 04:13:44;;;;;;;9.15;5.15;;;;;;;-13.02;85.89;102502.09;10441694;28;20041;-66
2023/12/09 04:18:47;;;;;;;11.38;5.55;;;;;;;-12.99;85.52;102496.69;10441823;28;20037;-65
2023/12/09 04:23:49;;;;;;;9.10;5.20;;;;;;;-12.94;85.40;102506.06;10442549;28;20045;-65
2023/12/09 04:28:51;;;;;;;8.63;5.55;;;;;;;-12.97;85.64;102511.50;10432621;28;20574;-65
2023/12/09 04:33:54;;;;;;;9.00;6.13;;;;;;;-13.05;85.67;102497.84;10442154;28;20046;-64
2023/12/09 04:38:56;;;;;;;9.02;5.32;;;;;;;-13.04;86.16;102504.00;10442587;28;20033;-65
2023/12/09 04:43:58;;;;;;;11.52;5.78;;;;;;;-13.01;85.76;102509.97;10443512;28;20049;-65
2023/12/09 04:49:01;;;;;;;9.38;5.88;;;;;;;-12.96;85.60;102507.94;10447128;28;20042;-65
2023/12/09 04:54:04;;;;;;;10.05;5.65;;;;;;;-12.97;86.01;102510.66;10439180;28;20033;-65
2023/12/09 04:59:06;;;;;;;10.73;6.30;;;;;;;-12.96;86.24;102493.88;10443552;28;20045;-65
2023/12/09 05:04:08;;;;;;;9.55;6.10;;;;;;;-13.00;86.20;102493.19;10442265;28;20041;-65
2023/12/09 05:09:11;;;;;;;9.18;5.70;;;;;;;-12.96;85.98;102493.88;10440856;28;20029;-65
2023/12/09 05:14:14;;;;;;;5.22;3.05;;;;;;;-12.89;85.89;102506.66;10440227;28;20432;-65
2023/12/09 05:19:17;;;;;;;10.15;5.50;;;;;;;-12.83;86.02;102516.06;10444054;28;20044;-64
2023/12/09 05:24:19;;;;;;;9.40;5.45;;;;;;;-12.93;85.25;102513.03;10441573;28;20064;-64
2023/12/09 05:29:23;;;;;;;10.93;6.00;;;;;;;-12.96;85.12;102507.94;10434547;28;20037;-64
2023/12/09 05:34:25;;;;;;;10.23;5.60;;;;;;;-12.97;85.57;102514.16;10438543;28;20523;-65
2023/12/09 05:39:29;;;;;;;8.20;5.15;;;;;;;-12.89;85.74;102508.44;10458099;28;20098;-65
2023/12/09 05:44:31;;;;;;;11.25;5.78;;;;;;;-12.91;86.01;102513.81;10437691;28;20524;-65
2023/12/09 05:49:33;;;;;;;9.63;4.78;;;;;;;-12.92;85.87;102512.09;10440811;28;20528;-65
2023/12/09 05:54:39;;;;;;;10.50;7.07;;;;;;;-13.01;86.15;102509.13;10435541;28;20056;-65
2023/12/09 05:59:42;;;;;;;13.23;6.85;;;;;;;-12.94;85.97;102521.06;10439557;28;20042;-65
2023/12/09 06:04:50;;;;;;;10.13;6.75;;;;;;;-12.97;86.38;102508.88;10439657;28;20041;-65
2023/12/09 06:09:53;;;;;;;11.70;5.75;;;;;;;-12.97;85.68;102493.03;10420063;28;20468;-65
2023/12/09 06:14:56;;;;;;;10.85;6.13;;;;;;;-12.97;86.17;102495.66;10437492;28;20045;-64
2023/12/09 06:19:58;;;;;;;8.43;4.90;;;;;;;-13.02;86.64;102486.25;10440113;28;20041;-65
2023/12/09 06:25:01;;;;;;;10.70;7.07;;;;;;;-13.06;85.82;102487.38;10441030;28;20041;-64
2023/12/09 06:30:05;;;;;;;11.70;7.32;;;;;;;-13.06;86.03;102479.44;10448266;28;20037;-64
2023/12/09 06:35:08;;;;;;;12.60;6.80;;;;;;;-13.11;86.50;102471.78;10447874;28;20037;-65
2023/12/09 06:40:11;;;;;;;9.35;5.72;;;;;;;-13.16;85.95;102464.13;10448976;28;20049;-65
2023/12/09 06:45:13;;;;;;;12.13;7.53;;;;;;;-13.13;86.23;102463.94;10445906;28;20064;-65
2023/12/09 06:50:16;;;;;;;12.15;7.03;;;;;;;-13.18;86.10;102459.88;10449560;28;20116;-64
2023/12/09 06:55:18;;;;;;;9.50;5.40;;;;;;;-13.10;85.96;102458.47;10447829;28;20049;-65
2023/12/09 07:00:21;;;;;;;13.20;6.43;;;;;;;-13.13;86.26;102445.44;10433975;28;20064;-65
2023/12/09 07:05:23;;;;;;;11.90;6.47;;;;;;;-13.15;86.21;102455.25;10450241;28;20152;-65
2023/12/09 07:10:26;;;;;;;10.73;5.95;;;;;;;-13.11;86.84;102458.56;10439030;28;20040;-66
2023/12/09 07:15:28;;;;;;;11.80;6.70;;;;;;;-13.12;86.41;102454.22;10431714;28;20048;-65
2023/12/09 07:20:30;;;;;;;10.77;6.38;;;;;;;-13.21;86.48;102466.16;10445251;28;20037;-64
2023/12/09 07:25:33;;;;;;;11.85;5.78;;;;;;;-13.12;86.57;102439.22;10436684;28;20046;-65
2023/12/09 07:30:35;;;;;;;10.13;6.25;;;;;;;-13.12;86.39;102439.22;10440566;28;20036;-64
2023/12/09 07:35:39;;;;;;;9.27;4.45;;;;;;;-13.10;86.36;102441.78;10440084;28;20029;-65
2023/12/09 07:40:42;;;;;;;13.82;7.85;;;;;;;-13.07;86.34;102436.31;10434426;28;20038;-66
2023/12/09 07:45:44;;;;;;;9.73;5.65;;;;;;;-13.06;85.83;102429.25;10445668;28;20056;-65
2023/12/09 07:50:48;;;;;;;11.02;6.43;;;;;;;-13.07;86.38;102435.47;10450676;28;20033;-65
2023/12/09 07:55:51;;;;;;;13.50;6.68;;;;;;;-13.10;85.73;102437.34;10438695;28;20045;-65
2023/12/09 08:00:53;;;;;;;12.15;7.13;;;;;;;-13.15;86.08;102433.28;10442219;28;20042;-65
2023/12/09 08:05:56;;;;;;;12.45;6.80;;;;;;;-13.25;85.41;102448.78;10410230;28;20048;-65
2023/12/09 08:11:01;;;;;;;14.15;7.25;;;;;;;-13.27;85.55;102437.44;10445810;28;20041;-65
2023/12/09 08:16:04;;;;;;;10.70;7.30;;;;;;;-13.27;85.55;102429.53;10443741;28;20048;-65
2023/12/09 08:21:06;;;;;;;12.48;7.65;;;;;;;-13.41;85.13;102430.28;10443202;28;20040;-66
2023/12/09 08:26:10;;;;;;;13.98;8.63;;;;;;;-13.50;85.74;102440.50;10443388;28;20049;-65
2023/12/09 08:31:12;;;;;;;12.38;7.35;;;;;;;-13.56;85.31;102417.03;10444612;28;20037;-67
2023/12/09 08:36:15;;;;;;;14.20;7.97;;;;;;;-13.62;84.86;102435.84;10435982;28;20048;-65
2023/12/09 08:41:17;;;;;;;11.95;7.88;;;;;;;-13.71;84.93;102437.16;10438324;28;20056;-64
2023/12/09 08:46:20;;;;;;;9.52;6.35;;;;;;;-13.80;84.81;102427.13;10435587;28;20045;-64
2023/12/09 08:51:24;;;;;;;10.02;5.32;;;;;;;-13.73;85.43;102420.56;10428645;28;20049;-68
2023/12/09 08:56:27;;;;;;;7.60;4.18;;;;;;;-13.72;84.93;102428.41;10433796;28;20037;-66
2023/12/09 09:01:31;;;;;;;8.10;4.45;;;;;;;-13.73;84.47;102420.56;10443429;28;20041;-67
2023/12/09 09:06:33;;;;;;;10.35;4.90;;;;;;;-13.85;83.82;102426.50;10442354;28;20124;-67
2023/12/09 09:11:36;;;;;;;13.77;5.00;;;;;;;-13.79;83.64;102427.03;10437829;28;20464;-67
2023/12/09 09:16:39;;;;;;;4.88;2.45;;;;;;;-13.75;84.12;102428.56;10431771;28;20453;-67
2023/12/09 09:21:41;;;;;;;8.40;4.55;;;;;;;-13.93;83.90;102429.53;10427225;28;20392;-67
2023/12/09 09:26:44;;;;;;;8.77;4.28;;;;;;;-13.87;83.40;102417.81;10424504;28;20049;-67
2023/12/09 09:31:46;;;;;;;13.50;5.43;;;;;;;-13.77;83.25;102413.75;10443796;28;20026;-67
2023/12/09 09:36:49;;;;;;;7.47;4.28;;;;;;;-13.97;83.69;102414.81;10434932;28;20436;-67
2023/12/09 09:41:54;;;;;;;8.27;3.55;;;;;;;-14.03;82.53;102407.22;10436721;28;20034;-66
2023/12/09 09:46:57;;;;;;;11.10;4.45;;;;;;;-13.93;82.75;102403.16;10435073;28;20041;-67
2023/12/09 09:52:02;;;;;;;7.50;3.88;;;;;;;-13.93;83.12;102403.16;10438559;28;20049;-69
2023/12/09 09:57:06;;;;;;;9.57;5.07;;;;;;;-13.93;82.63;102397.03;10436834;28;20037;-67
2023/12/09 10:02:10;;;;;;;10.98;5.10;;;;;;;-13.79;82.61;102379.53;10438600;28;20049;-66
2023/12/09 10:07:14;;;;;;;13.15;5.90;;;;;;;-13.76;82.29;102389.91;10440286;28;20037;-66
2023/12/09 10:12:16;;;;;;;9.88;5.03;;;;;;;-13.81;82.97;102364.72;10448645;28;20504;-67
2023/12/09 10:17:19;;;;;;;13.23;5.65;;;;;;;-13.87;82.65;102371.19;10449135;28;20182;-67
2023/12/09 10:22:22;;;;;;;11.43;5.00;;;;;;;-13.84;83.32;102363.09;10439692;28;20038;-65
2023/12/09 10:27:26;;;;;;;8.57;4.80;;;;;;;-13.72;83.03;102359.78;10453198;28;20559;-67
2023/12/09 10:32:29;;;;;;;9.75;4.95;;;;;;;-13.67;82.76;102358.72;10448796;28;20042;-68
2023/12/09 10:37:33;;;;;;;8.27;4.88;;;;;;;-13.74;82.47;102360.81;10432315;28;20156;-66
2023/12/09 10:42:37;;;;;;;10.57;4.78;;;;;;;-13.76;82.58;102358.25;10445575;28;20433;-68
2023/12/09 10:47:41;;;;;;;10.38;3.95;;;;;;;-13.73;82.64;102357.25;10442410;28;20029;-67
2023/12/09 10:52:43;;;;;;;8.15;4.20;;;;;;;-13.80;83.17;102350.59;10429459;28;20052;-67
2023/12/09 10:57:47;;;;;;;8.85;4.88;;;;;;;-13.79;82.64;102339.97;10436085;28;20040;-66
2023/12/09 11:02:50;;;;;;;9.52;5.18;;;;;;;-13.78;82.64;102333.75;10434602;28;20045;-68
2023/12/09 11:07:53;;;;;;;9.00;4.90;;;;;;;-13.76;83.25;102331.88;10436991;28;20040;-68
2023/12/09 11:12:56;;;;;;;15.48;6.25;;;;;;;-13.74;83.05;102335.28;10439701;28;20041;-68
2023/12/09 11:18:10;;;;;;;7.70;3.80;;;;;;;-13.71;83.57;102343.06;10437937;28;20520;-67
2023/12/09 11:23:13;;;;;;;11.80;6.05;;;;;;;-13.71;83.19;102332.50;10438824;28;20695;-67
2023/12/09 11:28:16;;;;;;;12.55;4.97;;;;;;;-13.63;83.56;102318.03;10440345;28;20116;-67
2023/12/09 11:33:18;;;;;;;13.25;6.85;;;;;;;-13.48;83.16;102325.94;10444402;28;20051;-67
2023/12/09 11:38:21;;;;;;;14.60;5.53;;;;;;;-13.28;83.44;102321.34;10434151;28;20030;-67
2023/12/09 11:43:23;;;;;;;9.38;3.88;;;;;;;-13.44;83.07;102321.34;10442270;28;20430;-68
2023/12/09 11:48:27;;;;;;;8.25;4.38;;;;;;;-13.53;83.25;102313.94;10439821;28;20034;-67
2023/12/09 11:53:30;;;;;;;11.23;5.32;;;;;;;-13.63;83.07;102310.09;10439358;28;20029;-67
2023/12/09 11:58:32;;;;;;;11.18;5.88;;;;;;;-13.65;83.87;102302.28;10432274;28;20037;-67
2023/12/09 12:03:34;;;;;;;11.45;5.25;;;;;;;-13.62;84.10;102303.88;10438615;28;20033;-66
2023/12/09 12:08:37;;;;;;;3.65;2.22;;;;;;;-13.63;84.56;102294.25;10436397;28;20033;-67
2023/12/09 12:13:40;;;;;;;15.15;6.20;;;;;;;-13.63;83.91;102312.75;10441164;28;20049;-67
2023/12/09 12:18:44;;;;;;;8.85;4.22;;;;;;;-13.70;84.23;102299.03;10437203;28;20033;-66
2023/12/09 12:23:54;;;;;;;13.30;5.55;;;;;;;-13.66;84.87;102289.16;10437811;28;20463;-67
2023/12/09 12:28:57;;;;;;;14.13;6.15;;;;;;;-13.58;85.10;102271.94;10433353;28;20033;-67
2023/12/09 12:34:13;;;;;;;10.85;5.75;;;;;;;-13.66;84.68;102275.97;10425416;28;20034;-67
2023/12/09 12:39:15;;;;;;;12.88;6.50;;;;;;;-13.60;85.48;102268.53;10424915;28;20452;-67
2023/12/09 12:44:19;;;;;;;5.78;3.15;;;;;;;-13.57;85.13;102268.38;10439869;28;20049;-69
2023/12/09 12:49:22;;;;;;;11.07;4.80;;;;;;;-13.57;85.15;102263.09;10435971;28;20045;-69
2023/12/09 12:54:27;;;;;;;5.45;3.08;;;;;;;-13.55;85.80;102265.66;10438131;28;20060;-67
2023/12/09 12:59:30;;;;;;;3.05;1.83;;;;;;;-13.43;85.04;102251.75;10431155;28;20038;-68
2023/12/09 13:04:32;;;;;;;4.63;2.75;;;;;;;-13.44;86.07;102252.69;10417065;28;20040;-68
2023/12/09 13:09:35;;;;;;;8.23;4.53;;;;;;;-13.42;85.71;102253.47;10432921;28;20034;-61
2023/12/09 13:14:38;;;;;;;5.32;2.80;;;;;;;-13.42;85.29;102258.75;10438776;28;20033;-62
2023/12/09 13:19:40;;;;;;;6.75;4.60;;;;;;;-13.43;86.06;102235.91;10441531;28;20161;-65
2023/12/09 13:24:43;;;;;;;7.15;4.32;;;;;;;-13.47;85.22;102237.88;10439941;28;20041;-61
2023/12/09 13:29:46;;;;;;;10.43;4.55;;;;;;;-13.49;86.01;102228.34;10436885;28;20033;-61
2023/12/09 13:34:48;;;;;;;7.10;4.07;;;;;;;-13.45;86.10;102235.16;10437849;28;20046;-63
2023/12/09 13:39:51;;;;;;;14.57;4.63;;;;;;;-13.38;85.88;102247.06;10437278;28;20038;-62
2023/12/09 13:44:53;;;;;;;6.70;4.45;;;;;;;-13.29;85.15;102236.00;10438065;28;20052;-61
2023/12/09 13:49:55;;;;;;;13.45;5.25;;;;;;;-13.32;85.44;102233.53;10437876;28;20041;-61
2023/12/09 13:54:58;;;;;;;15.02;4.95;;;;;;;-13.26;85.41;102232.31;10428526;28;20036;-63
2023/12/09 14:00:07;;;;;;;16.50;6.93;;;;;;;-13.20;85.40;102235.44;10427523;28;20045;-64
2023/12/09 14:05:11;;;;;;;10.18;5.43;;;;;;;-13.29;85.73;102225.44;10452566;28;20053;-67
2023/12/09 14:10:14;;;;;;;14.55;6.70;;;;;;;-13.27;85.21;102227.97;10441824;28;20029;-64
2023/12/09 14:15:16;;;;;;;12.48;5.72;;;;;;;-13.25;85.61;102232.22;10436782;28;20041;-64
2023/12/09 14:20:19;;;;;;;13.25;6.13;;;;;;;-13.29;85.68;102222.78;10435918;28;20497;-64
2023/12/09 14:25:24;;;;;;;8.55;3.72;;;;;;;-13.32;85.73;102236.16;10437601;28;20033;-65
2023/12/09 14:30:27;;;;;;;14.57;6.65;;;;;;;-13.27;86.12;102236.75;10441013;28;20044;-65
2023/12/09 14:35:35;;;;;;;6.10;3.72;;;;;;;-13.16;85.92;102222.91;10428854;28;20062;-64
2023/12/09 14:40:38;;;;;;;11.07;4.68;;;;;;;-13.12;86.03;102227.06;10436648;28;20034;-64
2023/12/09 14:45:40;;;;;;;13.63;5.82;;;;;;;-13.18;85.72;102230.94;10419970;28;20046;-65
2023/12/09 14:50:43;;;;;;;14.60;6.25;;;;;;;-13.16;85.76;102220.25;10424519;28;20029;-64
2023/12/09 14:55:45;;;;;;;9.43;4.35;;;;;;;-13.19;85.28;102218.69;10441544;28;20405;-64
2023/12/09 15:00:50;;;;;;;10.10;5.13;;;;;;;-13.20;85.91;102203.75;10441243;28;20303;-66
2023/12/09 15:05:53;;;;;;;4.05;2.78;;;;;;;-13.12;85.99;102209.41;10443826;28;20033;-64
2023/12/09 15:10:55;;;;;;;9.50;5.68;;;;;;;-13.07;85.28;102213.56;10432268;28;20029;-64
2023/12/09 15:16:01;;;;;;;12.35;5.28;;;;;;;-13.13;85.35;102214.78;10427224;28;20057;-66
2023/12/09 15:21:04;;;;;;;7.30;3.78;;;;;;;-13.13;85.21;102176.03;10427507;28;20048;-64
2023/12/09 15:26:07;;;;;;;10.68;5.40;;;;;;;-13.09;85.56;102182.81;10443226;28;20499;-66
2023/12/09 15:31:14;;;;;;;11.68;5.72;;;;;;;-13.10;85.51;102177.63;10434109;28;20033;-64
2023/12/09 15:36:17;;;;;;;13.60;5.47;;;;;;;-13.09;86.21;102171.41;10440993;28;20420;-67
2023/12/09 15:41:21;;;;;;;12.75;7.53;;;;;;;-13.05;85.80;102167.63;10438142;28;20127;-63
2023/12/09 15:46:23;;;;;;;10.38;5.13;;;;;;;-13.07;85.87;102153.66;10433707;28;20056;-66
2023/12/09 15:51:27;;;;;;;16.50;7.25;;;;;;;-13.01;86.07;102174.44;10436393;28;20030;-68
2023/12/09 15:56:29;;;;;;;11.45;6.05;;;;;;;-13.01;86.20;102170.97;10443458;28;20041;-68
2023/12/09 16:01:37;;;;;;;11.48;6.18;;;;;;;-13.02;85.94;102169.22;10436565;28;20398;-70
2023/12/09 16:06:58;;;;;;;9.57;4.85;;;;;;;-13.02;86.36;102159.50;10438311;28;20048;-71
2023/12/09 16:12:00;;;;;;;14.15;5.85;;;;;;;-13.02;85.48;102151.59;10433566;28;20051;-72
2023/12/09 16:17:10;;;;;;;7.40;4.45;;;;;;;-13.02;86.20;102153.38;10438220;28;20048;-69
2023/12/09 16:22:16;;;;;;;14.60;7.18;;;;;;;-13.04;85.70;102153.47;10439372;28;20041;-70
2023/12/09 16:27:18;;;;;;;12.52;6.25;;;;;;;-13.02;85.75;102133.09;10437009;28;20033;-70
2023/12/09 16:32:24;;;;;;;8.60;3.50;;;;;;;-13.07;86.23;102116.69;10442752;28;20030;-71
2023/12/09 16:37:29;;;;;;;8.45;3.75;;;;;;;-13.02;86.50;102113.75;10449625;28;20042;-69
2023/12/09 16:42:38;;;;;;;11.68;4.15;;;;;;;-13.09;85.67;102137.91;10436146;28;20059;-71
2023/12/09 16:47:44;;;;;;;13.32;6.32;;;;;;;-13.04;86.11;102120.94;10435776;28;20034;-70
2023/12/09 16:52:50;;;;;;;14.88;5.20;;;;;;;-12.97;86.43;102098.50;10419719;28;20033;-71
2023/12/09 16:58:00;;;;;;;12.52;4.90;;;;;;;-13.01;85.93;102089.06;10437178;28;20044;-71
2023/12/09 17:03:05;;;;;;;14.10;6.30;;;;;;;-12.99;85.99;102093.31;10437968;28;20033;-69
2023/12/09 17:08:08;;;;;;;11.88;5.22;;;;;;;-12.96;85.79;102098.41;10433987;28;20044;-67
2023/12/09 17:13:12;;;;;;;10.10;5.18;;;;;;;-12.96;86.09;102111.59;10435777;28;20060;-68
2023/12/09 17:18:14;;;;;;;13.40;6.95;;;;;;;-13.00;86.10;102085.47;10427910;28;20048;-68
2023/12/09 17:23:17;;;;;;;14.68;5.68;;;;;;;-12.99;86.54;102090.66;10440679;28;20037;-68
2023/12/09 17:28:22;;;;;;;14.10;5.28;;;;;;;-12.98;86.50;102079.16;10433539;28;20521;-67
2023/12/09 17:33:24;;;;;;;12.20;6.32;;;;;;;-12.92;86.07;102076.13;10445978;28;20037;-68
2023/12/09 17:38:27;;;;;;;8.45;4.47;;;;;;;-12.91;86.32;102069.03;10432138;28;20041;-68
2023/12/09 17:43:32;;;;;;;9.25;4.72;;;;;;;-12.97;85.93;102064.16;10429515;28;20041;-68
2023/12/09 17:48:37;;;;;;;10.93;5.45;;;;;;;-12.92;86.22;102070.00;10437855;28;20033;-69
2023/12/09 17:53:39;;;;;;;12.13;5.60;;;;;;;-12.90;85.95;102082.16;10438467;28;20041;-69
2023/12/09 17:58:47;;;;;;;13.65;6.15;;;;;;;-12.89;85.46;102083.00;10433568;28;20049;-68
2023/12/09 18:03:59;;;;;;;12.95;5.45;;;;;;;-12.90;86.41;102060.16;10422593;28;20053;-69
2023/12/09 18:09:07;;;;;;;12.57;5.65;;;;;;;-12.87;85.85;102078.47;10433286;28;20049;-69
2023/12/09 18:14:15;;;;;;;19.60;10.07;;;;;;;-12.85;85.70;102069.50;10430336;28;20033;-68
2023/12/09 18:19:19;;;;;;;20.02;10.32;;;;;;;-12.82;86.23;102064.06;10435453;28;20037;-69
2023/12/09 18:24:22;;;;;;;17.60;10.15;;;;;;;-12.79;86.15;102063.84;10440311;28;20593;-66
2023/12/09 18:29:27;;;;;;;17.85;10.63;;;;;;;-12.71;86.35;102054.59;10440953;28;20057;-68
2023/12/09 18:34:29;;;;;;;18.55;9.30;;;;;;;-12.66;85.30;102045.44;10438235;28;20512;-67
2023/12/09 18:39:33;;;;;;;11.73;5.70;;;;;;;-12.59;85.23;102052.03;10448136;28;20033;-66
2023/12/09 18:44:35;;;;;;;14.10;6.68;;;;;;;-12.70;85.28;102040.41;10443750;28;20042;-66
2023/12/09 18:49:37;;;;;;;16.20;7.07;;;;;;;-12.71;85.54;102036.94;10435418;28;20034;-66
2023/12/09 18:54:40;;;;;;;4.88;3.20;;;;;;;-12.73;85.72;102033.53;10441450;28;20539;-66
2023/12/09 18:59:51;;;;;;;13.25;5.82;;;;;;;-12.72;85.96;102019.38;10435979;28;20060;-65
2023/12/09 19:04:54;;;;;;;16.13;7.03;;;;;;;-12.66;85.33;102026.94;10441174;28;20053;-64
2023/12/09 19:10:15;;;;;;;14.82;5.78;;;;;;;-12.69;85.97;102013.91;10438115;28;20088;-67
2023/12/09 19:15:18;;;;;;;17.75;6.38;;;;;;;-12.71;86.13;102018.44;10440730;28;20132;-66
2023/12/09 19:20:26;;;;;;;13.82;6.03;;;;;;;-12.67;85.64;102014.63;10442917;28;20040;-66
2023/12/09 19:25:29;;;;;;;11.27;5.47;;;;;;;-12.68;85.71;102001.53;10441702;28;20048;-67
2023/12/09 19:30:31;;;;;;;16.40;5.80;;;;;;;-12.67;85.50;101992.66;10430401;28;20048;-65
2023/12/09 19:35:34;;;;;;;13.95;5.82;;;;;;;-12.61;85.71;102002.84;10443805;28;20622;-67
2023/12/09 19:40:36;;;;;;;7.00;3.13;;;;;;;-12.63;85.48;101997.66;10445972;28;20037;-67
2023/12/09 19:45:38;;;;;;;7.97;3.90;;;;;;;-12.66;85.98;101997.88;10442895;28;20057;-66
2023/12/09 19:50:41;;;;;;;17.17;8.05;;;;;;;-12.61;86.47;101997.56;10441478;28;20044;-65
2023/12/09 19:55:45;;;;;;;10.35;5.68;;;;;;;-12.57;85.49;101986.69;10442995;28;20037;-65
2023/12/09 20:00:47;;;;;;;14.63;5.75;;;;;;;-12.55;85.58;101994.50;10436217;28;20033;-65
2023/12/09 20:05:49;;;;;;;13.85;6.28;;;;;;;-12.57;86.05;101980.53;10431150;28;20033;-65
2023/12/09 20:10:52;;;;;;;11.48;6.03;;;;;;;-12.56;85.75;101985.72;10432945;28;20037;-65
2023/12/09 20:15:55;;;;;;;15.98;6.45;;;;;;;-12.47;85.34;101986.94;10434474;28;20049;-65
2023/12/09 20:20:57;;;;;;;12.15;5.95;;;;;;;-12.50;85.23;101981.84;10443437;28;20041;-64
2023/12/09 20:25:59;;;;;;;16.40;7.40;;;;;;;-12.54;85.86;101975.06;10435745;28;20053;-64
2023/12/09 20:31:03;;;;;;;11.20;5.00;;;;;;;-12.59;85.53;101969.22;10437177;28;20541;-65
2023/12/09 20:36:06;;;;;;;17.23;7.10;;;;;;;-12.56;85.86;101975.16;10464686;28;20048;-65
2023/12/09 20:41:08;;;;;;;14.25;7.10;;;;;;;-12.57;85.60;101968.19;10441834;28;20037;-64
2023/12/09 20:46:11;;;;;;;10.07;4.57;;;;;;;-12.49;86.15;101962.41;10458229;28;20057;-65
2023/12/09 20:51:14;;;;;;;14.15;5.30;;;;;;;-12.49;85.42;101957.97;10439700;28;20037;-65
2023/12/09 20:56:18;;;;;;;18.20;7.65;;;;;;;-12.54;85.40;101965.31;10434066;28;20417;-65
2023/12/09 21:01:21;;;;;;;15.85;6.75;;;;;;;-12.50;85.36;101964.16;10436853;28;20033;-64
2023/12/09 21:06:26;;;;;;;15.13;6.72;;;;;;;-12.54;86.11;101946.81;10433928;28;20509;-64
2023/12/09 21:11:29;;;;;;;14.10;5.95;;;;;;;-12.57;85.50;101933.81;10434448;28;20084;-63
2023/12/09 21:16:33;;;;;;;18.50;6.82;;;;;;;-12.57;85.83;101917.09;10437327;28;20512;-64
2023/12/09 21:21:35;;;;;;;15.30;6.53;;;;;;;-12.54;86.27;101907.16;10434957;28;20123;-64
2023/12/09 21:26:38;;;;;;;15.90;6.55;;;;;;;-12.52;86.08;101917.63;10442846;28;20562;-64
2023/12/09 21:31:42;;;;;;;14.07;6.25;;;;;;;-12.60;85.72;101912.88;10435009;28;20102;-64
2023/12/09 21:36:45;;;;;;;14.68;6.68;;;;;;;-12.51;85.70;101906.97;10436818;28;20045;-64
2023/12/09 21:41:48;;;;;;;14.18;5.88;;;;;;;-12.56;85.82;101909.06;10441209;28;20052;-65
2023/12/09 21:46:50;;;;;;;15.35;8.02;;;;;;;-12.41;85.24;101914.28;10455918;28;20056;-65
2023/12/09 21:51:53;;;;;;;15.50;5.53;;;;;;;-12.51;85.60;101906.97;10431648;28;20046;-65
2023/12/09 21:56:56;;;;;;;16.77;6.82;;;;;;;-12.50;85.55;101907.81;10443184;28;20531;-66
2023/12/09 22:01:59;;;;;;;13.45;6.13;;;;;;;-12.51;85.36;101935.19;10460748;28;20048;-66
2023/12/09 22:07:02;;;;;;;11.98;6.80;;;;;;;-12.48;85.87;101914.72;10465899;28;20049;-66
2023/12/09 22:12:06;;;;;;;10.90;5.43;;;;;;;-12.49;85.54;101922.75;10481584;28;20041;-65
2023/12/09 22:17:09;;;;;;;20.27;7.63;;;;;;;-12.54;85.94;101933.59;10446815;28;20088;-65
2023/12/09 22:22:12;;;;;;;4.40;2.60;;;;;;;-12.55;85.62;101915.19;10452904;28;20033;-64
2023/12/09 22:27:15;;;;;;;2.38;1.48;;;;;;;-12.54;85.52;101911.59;10442382;28;20037;-64
2023/12/09 22:32:17;;;;;;;13.07;5.68;;;;;;;-12.45;85.40;101916.31;10440000;28;20044;-64
2023/12/09 22:37:21;;;;;;;9.07;3.85;;;;;;;-12.53;85.55;101918.59;10449572;28;20061;-64
2023/12/09 22:42:24;;;;;;;12.73;7.35;;;;;;;-12.51;85.25;101920.19;10447113;28;20056;-64
2023/12/09 22:47:27;;;;;;;13.00;5.85;;;;;;;-12.51;85.67;101922.81;10444489;28;20513;-64